Time;durP1;ratioP1;P1;durP2;ratioP2;P2;SDS_P1;SDS_P2;PMS_P1;PMS_P2;Temp;Humidity;BMP_temperature;BMP_pressure;BME280_temperature;BME280_humidity;BME280_pressure;Samples;Min_cycle;Max_cycle;Signal;HPM_P1;HPM_P2
2022/10/11 00:01:29;;;;;;;4.40;4.00;;;19.00;56.50;;;;;;6165468;23;20154;-81
2022/10/11 00:03:59;;;;;;;4.65;4.18;;;19.00;56.50;;;;;;6189616;23;20687;-81
2022/10/11 00:06:29;;;;;;;4.55;4.10;;;19.00;56.60;;;;;;6165244;23;20598;-82
2022/10/11 00:08:56;;;;;;;5.20;4.25;;;19.00;56.60;;;;;;6165592;23;20637;-82
2022/10/11 00:11:26;;;;;;;5.20;4.20;;;19.00;56.60;;;;;;6165571;23;20149;-81
2022/10/11 00:13:53;;;;;;;4.40;3.80;;;19.00;56.60;;;;;;6165180;23;20165;-82
2022/10/11 00:16:24;;;;;;;4.88;4.22;;;19.00;56.60;;;;;;6165814;23;20506;-82
2022/10/11 00:18:54;;;;;;;6.82;4.28;;;18.90;56.60;;;;;;6214467;23;20161;-81
2022/10/11 00:21:20;;;;;;;5.38;4.22;;;18.90;56.60;;;;;;6190117;23;20225;-82
2022/10/11 00:23:52;;;;;;;4.65;4.15;;;19.00;56.60;;;;;;6166103;23;20142;-82
2022/10/11 00:26:18;;;;;;;4.68;4.15;;;19.00;56.70;;;;;;6164591;23;20161;-82
2022/10/11 00:28:44;;;;;;;4.95;4.20;;;19.00;56.60;;;;;;6191162;23;20134;-82
2022/10/11 00:31:15;;;;;;;5.55;4.28;;;18.90;56.60;;;;;;6217193;23;20134;-81
2022/10/11 00:33:47;;;;;;;4.93;4.22;;;18.90;56.60;;;;;;6189844;23;20154;-82
2022/10/11 00:36:15;;;;;;;4.82;4.30;;;18.90;56.60;;;;;;6189047;23;20178;-82
2022/10/11 00:38:42;;;;;;;6.18;4.45;;;19.00;56.70;;;;;;6191331;23;20130;-82
2022/10/11 00:41:12;;;;;;;4.93;4.00;;;19.00;56.70;;;;;;6215507;23;20153;-82
2022/10/11 00:43:42;;;;;;;5.43;4.45;;;19.00;56.70;;;;;;6140448;23;20238;-82
2022/10/11 00:46:24;;;;;;;5.50;4.03;;;18.90;56.60;;;;;;6189786;23;20487;-82
2022/10/11 00:48:59;;;;;;;5.00;4.10;;;18.90;56.70;;;;;;6166438;23;20469;-82
2022/10/11 00:51:33;;;;;;;5.35;3.78;;;18.90;56.70;;;;;;6189352;23;20253;-82
2022/10/11 00:54:04;;;;;;;5.18;4.00;;;18.90;56.60;;;;;;6215408;23;20589;-82
2022/10/11 00:56:32;;;;;;;4.40;4.00;;;19.00;56.70;;;;;;6189373;23;20170;-82
2022/10/11 00:59:00;;;;;;;4.70;4.10;;;18.90;56.70;;;;;;6190732;23;20137;-81
2022/10/11 01:01:29;;;;;;;4.70;4.00;;;18.90;56.70;;;;;;6190309;23;20222;-82
2022/10/11 01:04:00;;;;;;;5.38;4.15;;;19.00;56.70;;;;;;6215702;23;20570;-82
2022/10/11 01:06:31;;;;;;;4.38;3.97;;;18.90;56.70;;;;;;6189354;23;20484;-82
2022/10/11 01:09:02;;;;;;;5.35;4.32;;;18.90;56.70;;;;;;6214349;23;20220;-82
2022/10/11 01:11:33;;;;;;;4.40;3.70;;;18.90;56.80;;;;;;6189333;23;20154;-82
2022/10/11 01:14:13;;;;;;;4.72;4.18;;;18.90;56.70;;;;;;6164517;23;20158;-81
2022/10/11 01:16:52;;;;;;;4.72;4.20;;;19.00;56.80;;;;;;6214833;23;20491;-82
2022/10/11 01:19:53;;;;;;;5.13;3.55;;;18.90;56.80;;;;;;6165476;23;20154;-82
2022/10/11 01:22:53;;;;;;;5.97;4.15;;;18.90;56.80;;;;;;6214841;23;20249;-82
2022/10/11 01:25:26;;;;;;;4.82;4.20;;;18.90;56.80;;;;;;6216646;23;20130;-81
2022/10/11 01:28:31;;;;;;;4.57;4.13;;;18.90;56.80;;;;;;6216465;23;20204;-82
2022/10/11 01:31:02;;;;;;;4.88;4.13;;;18.90;56.80;;;;;;6215248;23;20258;-82
2022/10/11 01:33:49;;;;;;;4.57;4.15;;;18.90;56.80;;;;;;6190107;23;20139;-81
2022/10/11 01:36:26;;;;;;;5.28;4.65;;;18.90;56.90;;;;;;6164921;23;20166;-82
2022/10/11 01:39:14;;;;;;;5.57;4.53;;;18.90;56.90;;;;;;6215222;23;20130;-82
2022/10/11 01:41:46;;;;;;;5.40;4.10;;;18.90;56.80;;;;;;6192253;23;20153;-82
2022/10/11 01:44:14;;;;;;;4.38;3.90;;;18.90;56.90;;;;;;6189513;23;20637;-82
2022/10/11 01:46:44;;;;;;;5.60;4.47;;;18.90;56.90;;;;;;6164384;23;20225;-82
2022/10/11 01:49:12;;;;;;;4.78;4.28;;;18.90;56.90;;;;;;6164008;23;20520;-82
2022/10/11 01:51:41;;;;;;;5.57;4.47;;;18.90;56.90;;;;;;6158727;23;20198;-82
2022/10/11 01:54:16;;;;;;;6.13;4.40;;;18.90;57.60;;;;;;6135469;23;20182;-81
2022/10/11 01:57:10;;;;;;;4.70;4.20;;;18.90;56.90;;;;;;6159774;23;20186;-82
2022/10/11 01:59:55;;;;;;;6.75;4.13;;;19.00;57.00;;;;;;6098054;23;20213;-82
2022/10/11 02:02:55;;;;;;;4.63;4.22;;;18.90;56.90;;;;;;6160199;23;20225;-81
2022/10/11 02:05:55;;;;;;;4.45;4.00;;;18.90;57.00;;;;;;6160309;23;20143;-82
2022/10/11 02:08:37;;;;;;;4.72;3.90;;;18.80;56.90;;;;;;6186257;23;20135;-81
2022/10/11 02:11:18;;;;;;;4.82;4.35;;;18.80;57.00;;;;;;6092829;23;20158;-82
2022/10/11 02:13:53;;;;;;;4.95;4.45;;;18.80;57.00;;;;;;6159584;23;20551;-81
2022/10/11 02:16:22;;;;;;;4.88;4.07;;;18.80;57.00;;;;;;6113294;23;20273;-81
2022/10/11 02:18:50;;;;;;;5.32;4.00;;;18.90;57.10;;;;;;6134551;23;20154;-82
2022/10/11 02:21:19;;;;;;;5.13;4.30;;;18.90;57.10;;;;;;6159147;23;20181;-82
2022/10/11 02:23:50;;;;;;;4.90;4.40;;;18.90;57.10;;;;;;6134041;23;20482;-82
2022/10/11 02:26:16;;;;;;;4.78;4.28;;;18.80;57.00;;;;;;6158497;23;20241;-82
2022/10/11 02:28:43;;;;;;;5.15;4.25;;;18.80;57.00;;;;;;6134603;23;20590;-82
2022/10/11 02:31:10;;;;;;;4.55;4.07;;;18.80;57.00;;;;;;6134399;23;20155;-82
2022/10/11 02:33:44;;;;;;;5.00;4.47;;;18.80;57.00;;;;;;6134484;23;20621;-82
2022/10/11 02:36:19;;;;;;;4.75;4.05;;;18.80;57.00;;;;;;6159101;23;20229;-81
2022/10/11 02:38:48;;;;;;;4.47;4.00;;;18.90;57.10;;;;;;6135143;23;20285;-82
2022/10/11 02:41:22;;;;;;;4.50;4.00;;;18.80;57.10;;;;;;6184357;23;20466;-82
2022/10/11 02:43:54;;;;;;;5.20;4.28;;;18.80;57.00;;;;;;6135440;23;20155;-81
2022/10/11 02:46:19;;;;;;;4.88;4.38;;;18.80;57.00;;;;;;6184186;23;20162;-82
2022/10/11 02:48:47;;;;;;;4.93;4.20;;;18.90;57.10;;;;;;6134958;23;20590;-82
2022/10/11 02:51:13;;;;;;;5.32;4.15;;;18.80;56.90;;;;;;6163392;23;20200;-82
2022/10/11 02:53:40;;;;;;;5.38;4.22;;;18.90;57.10;;;;;;6140076;23;20146;-82
2022/10/11 02:56:09;;;;;;;5.57;4.10;;;18.90;57.10;;;;;;6215726;23;20165;-85
2022/10/11 02:58:35;;;;;;;4.50;3.80;;;18.80;57.00;;;;;;6115054;23;20335;-82
2022/10/11 03:01:03;;;;;;;4.35;3.90;;;18.80;57.00;;;;;;6191345;23;20242;-82
2022/10/11 03:03:31;;;;;;;4.88;4.15;;;18.80;57.10;;;;;;6116918;23;20155;-82
2022/10/11 03:06:02;;;;;;;4.30;3.90;;;18.80;57.10;;;;;;6140981;23;20158;-82
2022/10/11 03:08:29;;;;;;;4.88;4.15;;;18.80;57.10;;;;;;6092362;23;20200;-82
2022/10/11 03:10:57;;;;;;;4.70;4.20;;;18.90;57.20;;;;;;6141043;23;20153;-82
2022/10/11 03:13:27;;;;;;;4.72;4.20;;;18.80;57.10;;;;;;6141070;23;20161;-82
2022/10/11 03:15:54;;;;;;;5.13;4.20;;;18.80;57.10;;;;;;6116542;23;20578;-82
2022/10/11 03:18:20;;;;;;;4.93;4.25;;;18.80;57.10;;;;;;6092482;23;20154;-81
2022/10/11 03:20:47;;;;;;;5.53;4.72;;;18.90;57.20;;;;;;6141945;23;20287;-82
2022/10/11 03:23:13;;;;;;;4.65;4.15;;;18.80;57.20;;;;;;6190978;23;20281;-81
2022/10/11 03:25:40;;;;;;;4.55;4.10;;;18.80;57.20;;;;;;6191633;23;20135;-82
2022/10/11 03:28:06;;;;;;;4.65;4.13;;;18.80;57.20;;;;;;6191332;23;20461;-82
2022/10/11 03:30:32;;;;;;;4.95;4.38;;;18.80;57.30;;;;;;6217784;23;20574;-82
2022/10/11 03:32:58;;;;;;;4.72;4.20;;;18.80;57.30;;;;;;6191165;23;20585;-82
2022/10/11 03:35:24;;;;;;;5.00;4.50;;;18.80;57.30;;;;;;6191512;23;20134;-82
2022/10/11 03:37:50;;;;;;;5.32;4.50;;;18.80;57.30;;;;;;6166792;23;20173;-82
2022/10/11 03:40:20;;;;;;;4.43;3.92;;;18.80;57.30;;;;;;6166167;23;20149;-82
2022/10/11 03:42:46;;;;;;;4.70;4.20;;;18.80;57.30;;;;;;6092332;23;20150;-82
2022/10/11 03:45:13;;;;;;;5.47;4.50;;;18.80;57.30;;;;;;6191200;23;20130;-82
2022/10/11 03:47:39;;;;;;;5.53;4.13;;;18.80;57.30;;;;;;6190829;23;20209;-82
2022/10/11 03:50:10;;;;;;;4.95;4.30;;;18.80;57.40;;;;;;6191461;23;20558;-82
2022/10/11 03:52:36;;;;;;;6.32;4.47;;;18.90;57.40;;;;;;6116493;23;20208;-82
2022/10/11 03:55:02;;;;;;;4.68;4.10;;;18.80;57.30;;;;;;6217319;23;20134;-82
2022/10/11 03:57:29;;;;;;;5.07;4.10;;;18.80;57.40;;;;;;6217364;23;20185;-82
2022/10/11 03:59:58;;;;;;;4.38;3.95;;;18.80;57.30;;;;;;6190857;23;20130;-82
2022/10/11 04:02:27;;;;;;;4.95;4.45;;;18.80;57.40;;;;;;6111686;23;20178;-81
2022/10/11 04:04:57;;;;;;;4.63;4.13;;;18.80;57.40;;;;;;6134508;23;20150;-82
2022/10/11 04:07:25;;;;;;;4.65;4.18;;;18.70;57.40;;;;;;6165230;23;20158;-82
2022/10/11 04:09:54;;;;;;;5.43;4.30;;;18.80;57.40;;;;;;6214816;23;20161;-82
2022/10/11 04:12:26;;;;;;;5.53;4.40;;;18.80;57.40;;;;;;6214670;23;20192;-81
2022/10/11 04:14:54;;;;;;;4.18;3.78;;;18.80;57.50;;;;;;6214647;23;20158;-82
2022/10/11 04:17:25;;;;;;;4.97;4.38;;;18.80;57.40;;;;;;6189566;23;20229;-82
2022/10/11 04:19:53;;;;;;;4.93;3.90;;;18.80;57.50;;;;;;6216000;23;20150;-82
2022/10/11 04:22:21;;;;;;;4.68;3.95;;;18.70;57.50;;;;;;6190022;23;20164;-81
2022/10/11 04:24:53;;;;;;;5.93;4.50;;;18.70;57.50;;;;;;6189931;23;20514;-81
2022/10/11 04:27:18;;;;;;;5.88;4.60;;;18.80;57.50;;;;;;6190757;23;20138;-82
2022/10/11 04:29:46;;;;;;;5.28;4.38;;;18.70;57.50;;;;;;6215786;23;20589;-82
2022/10/11 04:32:13;;;;;;;4.60;4.18;;;18.70;57.50;;;;;;6215198;23;20150;-82
2022/10/11 04:34:45;;;;;;;4.13;3.70;;;18.70;57.60;;;;;;6165594;23;20463;-82
2022/10/11 04:37:12;;;;;;;4.95;4.00;;;18.70;57.60;;;;;;6165333;23;20605;-81
2022/10/11 04:39:39;;;;;;;4.15;3.75;;;18.70;57.70;;;;;;6165063;23;20288;-82
2022/10/11 04:42:06;;;;;;;5.13;4.07;;;18.70;57.70;;;;;;6215415;23;20242;-82
2022/10/11 04:44:36;;;;;;;4.60;3.83;;;18.70;57.70;;;;;;6190083;23;20154;-82
2022/10/11 04:47:03;;;;;;;4.07;3.67;;;18.70;57.70;;;;;;6215210;23;20153;-81
2022/10/11 04:49:36;;;;;;;4.60;4.07;;;18.80;57.70;;;;;;6214901;23;20154;-81
2022/10/11 04:52:02;;;;;;;4.85;4.13;;;18.70;57.60;;;;;;6189553;23;20229;-82
2022/10/11 04:54:34;;;;;;;5.15;4.30;;;18.70;57.60;;;;;;6215323;23;20153;-82
2022/10/11 04:57:00;;;;;;;5.07;3.97;;;18.70;57.60;;;;;;6189115;23;20178;-82
2022/10/11 04:59:27;;;;;;;4.70;4.07;;;18.70;57.70;;;;;;6189650;23;20154;-82
2022/10/11 05:01:54;;;;;;;4.47;3.72;;;18.70;57.70;;;;;;6189819;23;20154;-82
2022/10/11 05:04:23;;;;;;;4.25;3.85;;;18.70;57.80;;;;;;6214543;23;20154;-82
2022/10/11 05:06:58;;;;;;;5.82;4.13;;;18.60;57.80;;;;;;6190443;23;20142;-82
2022/10/11 05:09:25;;;;;;;4.10;3.70;;;18.60;57.70;;;;;;6164955;23;20157;-82
2022/10/11 05:11:55;;;;;;;3.65;3.25;;;18.70;57.80;;;;;;6164731;23;20158;-82
2022/10/11 05:14:22;;;;;;;3.75;3.30;;;18.70;57.60;;;;;;6189621;23;20193;-82
2022/10/11 05:16:49;;;;;;;4.35;3.60;;;18.70;57.60;;;;;;6164278;23;20204;-81
2022/10/11 05:19:16;;;;;;;3.83;3.22;;;18.80;58.00;;;;;;6188823;23;20177;-82
2022/10/11 05:21:43;;;;;;;3.03;2.72;;;18.80;57.60;;;;;;6139879;23;20150;-82
2022/10/11 05:24:10;;;;;;;3.25;2.95;;;18.80;57.50;;;;;;6189562;23;20154;-82
2022/10/11 05:26:40;;;;;;;3.22;2.83;;;18.80;57.40;;;;;;6215643;23;20191;-82
2022/10/11 05:29:07;;;;;;;3.17;2.80;;;18.90;57.30;;;;;;6189663;23;20618;-83
2022/10/11 05:31:33;;;;;;;3.00;2.45;;;18.90;57.40;;;;;;6190680;23;20153;-82
2022/10/11 05:33:59;;;;;;;3.00;2.70;;;18.90;57.20;;;;;;6215623;23;20268;-82
2022/10/11 05:36:25;;;;;;;3.70;3.10;;;18.90;57.40;;;;;;6215701;23;20162;-82
2022/10/11 05:38:51;;;;;;;3.85;3.17;;;18.90;57.40;;;;;;6215161;23;20134;-82
2022/10/11 05:41:21;;;;;;;2.75;2.53;;;18.90;57.50;;;;;;6216497;23;20140;-82
2022/10/11 05:43:51;;;;;;;3.03;2.72;;;18.90;57.20;;;;;;6189196;23;20232;-82
2022/10/11 05:46:17;;;;;;;3.00;2.53;;;18.90;57.20;;;;;;6192974;23;20184;-82
2022/10/11 05:48:43;;;;;;;3.08;2.60;;;18.90;57.10;;;;;;6219312;23;20138;-82
2022/10/11 05:51:09;;;;;;;2.45;2.25;;;19.00;57.10;;;;;;6219826;23;20205;-82
2022/10/11 05:53:36;;;;;;;2.63;2.33;;;19.00;57.00;;;;;;6196192;23;20513;-82
2022/10/11 05:56:03;;;;;;;2.28;2.08;;;19.00;56.90;;;;;;6172039;23;20177;-82
2022/10/11 05:58:35;;;;;;;2.30;2.10;;;19.00;56.70;;;;;;6193294;23;20140;-82
2022/10/11 06:01:04;;;;;;;3.13;2.83;;;19.00;57.00;;;;;;6165448;23;20190;-83
2022/10/11 06:03:51;;;;;;;2.90;2.28;;;18.90;56.80;;;;;;6216176;23;20134;-82
2022/10/11 06:06:41;;;;;;;2.70;2.08;;;19.00;56.70;;;;;;6163818;23;20158;-82
2022/10/11 06:09:11;;;;;;;2.67;2.20;;;19.00;56.80;;;;;;6190674;23;20166;-82
2022/10/11 06:11:40;;;;;;;2.35;2.15;;;19.00;56.70;;;;;;6105774;23;20572;-82
2022/10/11 06:17:30;;;;;;;3.10;2.10;;;19.00;56.60;;;;;;6094228;23;20184;-82
2022/10/11 06:20:53;;;;;;;2.17;2.03;;;19.00;56.70;;;;;;6094887;23;20601;-82
2022/10/11 06:23:19;;;;;;;2.60;2.30;;;19.00;56.50;;;;;;6085108;23;20163;-82
2022/10/11 06:26:12;;;;;;;2.30;2.10;;;19.10;56.80;;;;;;6094855;23;20149;-82
2022/10/11 06:29:15;;;;;;;2.85;2.47;;;19.00;56.30;;;;;;6058378;23;20158;-82
2022/10/11 06:31:53;;;;;;;2.30;2.10;;;19.00;56.30;;;;;;6008457;23;20163;-82
2022/10/11 06:34:59;;;;;;;;;;;;;;;;;;;;;
2022/10/11 06:37:35;;;;;;;2.60;2.30;;;19.00;56.30;;;;;;6007810;23;20268;-81
2022/10/11 06:40:52;;;;;;;2.13;1.90;;;19.00;56.60;;;;;;5985599;23;20168;-81
2022/10/11 06:43:49;;;;;;;2.42;2.15;;;19.00;56.10;;;;;;6021280;23;20185;-81
2022/10/11 06:47:27;;;;;;;2.20;2.00;;;19.10;56.20;;;;;;6008401;23;20185;-81
2022/10/11 06:49:49;;;;;;;2.05;1.90;;;19.00;56.10;;;;;;5988730;23;20237;-81
2022/10/11 06:53:17;;;;;;;2.20;2.00;;;19.10;56.40;;;;;;6002903;23;20266;-81
2022/10/11 06:55:43;;;;;;;2.42;2.10;;;19.00;56.20;;;;;;5897771;24;20191;-81
2022/10/11 06:58:14;;;;;;;2.00;1.65;;;19.00;56.40;;;;;;5920179;24;20185;-82
2022/10/11 07:01:02;;;;;;;;;;;;;;;;;;;;;
2022/10/11 07:04:01;;;;;;;2.13;1.92;;;19.00;56.10;;;;;;5836342;24;20240;-80
2022/10/11 07:06:41;;;;;;;2.08;1.90;;;19.00;56.30;;;;;;5821766;24;20166;-81
2022/10/11 07:09:07;;;;;;;2.13;1.63;;;19.00;56.00;;;;;;5822388;24;20615;-81
2022/10/11 07:11:34;;;;;;;3.38;1.83;;;19.00;56.00;;;;;;5881955;24;20200;-81
2022/10/11 07:14:06;;;;;;;1.75;1.52;;;19.10;55.80;;;;;;5925568;24;20316;-81
2022/10/11 07:16:44;;;;;;;2.13;1.92;;;19.10;55.80;;;;;;5925382;24;20240;-81
2022/10/11 07:19:19;;;;;;;1.40;1.30;;;19.00;56.10;;;;;;5858558;24;20493;-81
2022/10/11 07:21:55;;;;;;;1.70;1.60;;;19.00;55.80;;;;;;5924591;24;20235;-80
2022/10/11 07:24:23;;;;;;;1.60;1.40;;;19.00;55.70;;;;;;5930600;24;20167;-79
2022/10/11 07:26:55;;;;;;;1.83;1.58;;;19.10;55.60;;;;;;6006954;23;20634;-81
2022/10/11 07:29:36;;;;;;;2.00;1.73;;;19.10;55.80;;;;;;5930367;24;20164;-81
2022/10/11 07:32:03;;;;;;;2.10;1.88;;;19.10;55.90;;;;;;5949054;23;20183;-81
2022/10/11 07:34:29;;;;;;;1.90;1.70;;;19.10;56.00;;;;;;5991384;23;20158;-81
2022/10/11 07:36:54;;;;;;;1.90;1.73;;;19.00;55.80;;;;;;5996564;23;20194;-81
2022/10/11 07:39:23;;;;;;;1.63;1.50;;;19.10;56.00;;;;;;6051833;23;20188;-80
2022/10/11 07:41:54;;;;;;;1.90;1.70;;;19.00;55.70;;;;;;6075700;23;20140;-81
2022/10/11 07:44:20;;;;;;;1.48;1.38;;;19.10;55.60;;;;;;6037487;23;20202;-81
2022/10/11 07:46:46;;;;;;;1.30;1.20;;;19.10;55.70;;;;;;6039165;23;20181;-81
2022/10/11 07:49:12;;;;;;;1.17;1.10;;;19.10;55.40;;;;;;6040603;23;20154;-81
2022/10/11 07:51:38;;;;;;;1.70;1.50;;;19.20;55.20;;;;;;6038730;23;20689;-82
2022/10/11 07:54:03;;;;;;;1.75;1.50;;;19.10;55.40;;;;;;6039689;23;20160;-80
2022/10/11 07:56:29;;;;;;;6.45;1.52;;;19.10;55.40;;;;;;6039559;23;20194;-81
2022/10/11 07:58:56;;;;;;;1.40;1.30;;;19.20;55.10;;;;;;6040540;23;20146;-81
2022/10/11 08:01:22;;;;;;;1.50;1.40;;;19.20;55.60;;;;;;6120696;23;20453;-80
2022/10/11 08:03:48;;;;;;;2.00;1.67;;;19.10;55.40;;;;;;6072186;23;20152;-81
2022/10/11 08:06:15;;;;;;;1.52;1.40;;;19.10;55.40;;;;;;6072439;23;20157;-80
2022/10/11 08:08:42;;;;;;;1.50;1.10;;;19.10;55.50;;;;;;6072202;23;20152;-81
2022/10/11 08:11:20;;;;;;;1.70;1.48;;;19.20;55.30;;;;;;6096949;23;20661;-81
2022/10/11 08:13:45;;;;;;;1.23;1.13;;;19.20;55.50;;;;;;6095675;23;20172;-80
2022/10/11 08:16:15;;;;;;;2.25;1.10;;;19.10;55.20;;;;;;6124786;23;20259;-81
2022/10/11 08:18:46;;;;;;;1.40;1.30;;;19.20;55.00;;;;;;6107051;23;20520;-81
2022/10/11 08:21:13;;;;;;;1.48;1.20;;;19.20;55.00;;;;;;6130963;23;20147;-81
2022/10/11 08:23:38;;;;;;;1.75;1.48;;;19.20;54.90;;;;;;6155178;23;20298;-81
2022/10/11 08:26:05;;;;;;;1.40;0.90;;;19.30;54.80;;;;;;6153819;23;20471;-81
2022/10/11 08:28:30;;;;;;;1.05;0.95;;;19.30;54.30;;;;;;6130036;23;20253;-81
2022/10/11 08:30:56;;;;;;;2.03;1.10;;;19.30;54.40;;;;;;6154672;23;20182;-81
2022/10/11 08:33:22;;;;;;;1.73;1.20;;;19.40;54.40;;;;;;6155345;23;20136;-81
2022/10/11 08:35:49;;;;;;;1.33;1.00;;;19.40;54.30;;;;;;6186352;23;20153;-81
2022/10/11 08:38:15;;;;;;;1.38;1.17;;;19.40;54.30;;;;;;6191016;23;20489;-81
2022/10/11 08:40:52;;;;;;;2.20;1.17;;;19.40;54.40;;;;;;6217456;23;20134;-80
2022/10/11 08:43:47;;;;;;;1.45;0.90;;;19.40;54.40;;;;;;6191183;23;20268;-81
2022/10/11 08:46:13;;;;;;;1.30;1.20;;;19.30;54.10;;;;;;6219023;23;20178;-80
2022/10/11 08:48:44;;;;;;;1.20;1.10;;;19.40;54.40;;;;;;6168726;23;20224;-81
2022/10/11 08:51:18;;;;;;;1.10;1.00;;;19.30;54.30;;;;;;6190366;23;20521;-81
2022/10/11 08:53:51;;;;;;;1.15;0.95;;;19.30;54.50;;;;;;6190470;23;20149;-80
2022/10/11 08:56:16;;;;;;;1.50;1.02;;;19.30;54.50;;;;;;6190534;23;20205;-81
2022/10/11 08:58:56;;;;;;;0.93;0.93;;;19.30;54.10;;;;;;6190839;23;20126;-81
2022/10/11 09:01:23;;;;;;;1.20;1.08;;;19.40;53.90;;;;;;6165821;23;20585;-81
2022/10/11 09:03:49;;;;;;;1.13;1.02;;;19.40;54.20;;;;;;6165653;23;20156;-81
2022/10/11 09:06:25;;;;;;;1.17;1.05;;;19.40;54.10;;;;;;6190201;23;20130;-81
2022/10/11 09:09:22;;;;;;;1.25;1.15;;;19.40;54.00;;;;;;6191906;23;20144;-81
2022/10/11 09:12:00;;;;;;;1.63;0.90;;;19.40;54.00;;;;;;6168965;23;20571;-81
2022/10/11 09:14:56;;;;;;;1.13;0.93;;;19.40;53.90;;;;;;6189962;23;20168;-81
2022/10/11 09:17:56;;;;;;;0.80;0.80;;;19.40;53.70;;;;;;6216523;23;20173;-81
2022/10/11 09:20:36;;;;;;;1.15;0.88;;;19.40;53.40;;;;;;6216127;23;20180;-81
2022/10/11 09:23:35;;;;;;;1.30;1.10;;;19.40;53.00;;;;;;6217329;23;20145;-80
2022/10/11 09:26:06;;;;;;;0.73;0.70;;;19.40;53.10;;;;;;6216419;23;20133;-81
2022/10/11 09:28:56;;;;;;;0.70;0.63;;;19.40;53.10;;;;;;6190066;23;20578;-81
2022/10/11 09:31:22;;;;;;;2.15;0.90;;;19.40;52.90;;;;;;6216240;23;20140;-81
2022/10/11 09:33:50;;;;;;;0.98;0.88;;;19.50;53.00;;;;;;6216931;23;20150;-81
2022/10/11 09:36:38;;;;;;;0.95;0.70;;;19.50;52.90;;;;;;6198851;23;20189;-81
2022/10/11 09:39:36;;;;;;;0.90;0.80;;;19.50;53.40;;;;;;6190417;23;20173;-82
2022/10/11 09:42:07;;;;;;;0.80;0.70;;;19.50;52.90;;;;;;6216014;23;20137;-81
2022/10/11 09:44:45;;;;;;;1.20;0.90;;;19.50;52.60;;;;;;6189568;23;20142;-81
2022/10/11 09:47:18;;;;;;;0.63;0.63;;;19.50;52.90;;;;;;6215977;23;20539;-82
2022/10/11 09:49:53;;;;;;;1.48;0.85;;;19.50;52.40;;;;;;6116041;23;20154;-81
2022/10/11 09:52:20;;;;;;;1.50;0.90;;;19.50;52.30;;;;;;6139955;23;20510;-81
2022/10/11 09:54:53;;;;;;;1.10;0.80;;;19.50;52.20;;;;;;6188751;23;20497;-82
2022/10/11 09:57:38;;;;;;;0.80;0.75;;;19.50;52.30;;;;;;6141411;23;20186;-81
2022/10/11 10:00:22;;;;;;;1.38;0.73;;;19.50;51.90;;;;;;6115927;23;20150;-81
2022/10/11 10:02:53;;;;;;;0.70;0.68;;;19.50;51.90;;;;;;6163812;23;20149;-81
2022/10/11 10:05:24;;;;;;;0.60;0.57;;;19.50;51.70;;;;;;6115898;23;20532;-82
2022/10/11 10:08:26;;;;;;;1.23;0.80;;;19.50;51.60;;;;;;6140794;23;20485;-82
2022/10/11 10:11:02;;;;;;;0.80;0.70;;;19.50;51.70;;;;;;6216347;23;20220;-82
2022/10/11 10:13:56;;;;;;;1.15;0.70;;;19.50;51.30;;;;;;6140180;23;20154;-81
2022/10/11 10:16:28;;;;;;;1.27;0.70;;;19.50;51.40;;;;;;6120951;23;20181;-82
2022/10/11 10:18:59;;;;;;;0.80;0.57;;;19.50;51.20;;;;;;6140524;23;20150;-82
2022/10/11 10:21:31;;;;;;;1.88;0.80;;;19.50;51.10;;;;;;6115789;23;20586;-81
2022/10/11 10:24:02;;;;;;;0.68;0.60;;;19.60;51.20;;;;;;6140416;23;20586;-82
2022/10/11 10:26:29;;;;;;;0.80;0.80;;;19.50;51.00;;;;;;6117204;23;20212;-81
2022/10/11 10:29:04;;;;;;;0.73;0.63;;;19.50;51.40;;;;;;6139445;23;20208;-81
2022/10/11 10:31:51;;;;;;;0.80;0.60;;;19.50;50.90;;;;;;6107709;23;20160;-81
2022/10/11 10:34:22;;;;;;;0.55;0.55;;;19.50;50.70;;;;;;6213891;23;20165;-81
2022/10/11 10:37:03;;;;;;;0.93;0.63;;;19.50;50.50;;;;;;6213929;23;20182;-82
2022/10/11 10:39:35;;;;;;;0.60;0.60;;;19.50;50.50;;;;;;6190225;23;20157;-81
2022/10/11 10:42:03;;;;;;;0.65;0.50;;;19.50;50.60;;;;;;6214285;23;20169;-81
2022/10/11 10:44:30;;;;;;;0.57;0.50;;;19.50;50.50;;;;;;6214647;23;20127;-82
2022/10/11 10:47:06;;;;;;;0.40;0.40;;;19.50;50.10;;;;;;6215875;23;20158;-81
2022/10/11 10:49:56;;;;;;;0.77;0.50;;;19.50;50.20;;;;;;6216584;23;20145;-81
2022/10/11 10:52:41;;;;;;;0.63;0.63;;;19.50;50.30;;;;;;6215610;23;20185;-81
2022/10/11 10:55:32;;;;;;;0.55;0.50;;;19.50;50.40;;;;;;6189428;23;20150;-81
2022/10/11 10:58:37;;;;;;;0.50;0.50;;;19.50;50.10;;;;;;6189010;23;20162;-81
2022/10/11 11:01:10;;;;;;;0.50;0.50;;;19.50;50.80;;;;;;6168600;23;20145;-81
2022/10/11 11:03:43;;;;;;;0.50;0.50;;;19.50;50.20;;;;;;6215977;23;20134;-81
2022/10/11 11:06:16;;;;;;;0.57;0.57;;;19.50;50.20;;;;;;6189273;23;20586;-81
2022/10/11 11:08:54;;;;;;;0.65;0.55;;;19.50;49.90;;;;;;6189630;23;20184;-81
2022/10/11 11:11:56;;;;;;;0.43;0.43;;;19.50;50.10;;;;;;6215873;23;20465;-81
2022/10/11 11:14:46;;;;;;;0.95;0.68;;;19.50;49.80;;;;;;6216018;23;20134;-81
2022/10/11 11:17:26;;;;;;;0.35;0.35;;;19.50;49.90;;;;;;6215823;23;20231;-82
2022/10/11 11:20:13;;;;;;;0.55;0.40;;;19.50;49.50;;;;;;6216064;23;20146;-81
2022/10/11 11:22:59;;;;;;;1.10;0.60;;;19.50;49.80;;;;;;6217979;23;20146;-80
2022/10/11 11:25:48;;;;;;;0.70;0.52;;;19.50;49.90;;;;;;6217399;23;20480;-81
2022/10/11 11:28:47;;;;;;;0.65;0.47;;;19.50;49.40;;;;;;6170893;23;20154;-81
2022/10/11 11:31:46;;;;;;;0.70;0.40;;;19.50;49.70;;;;;;6191448;23;20217;-81
2022/10/11 11:34:20;;;;;;;0.68;0.60;;;19.50;49.20;;;;;;6217214;23;20154;-81
2022/10/11 11:36:50;;;;;;;0.50;0.50;;;19.50;49.40;;;;;;6190895;23;20200;-82
2022/10/11 11:39:24;;;;;;;0.70;0.45;;;19.50;49.30;;;;;;6191784;23;20173;-82
2022/10/11 11:42:04;;;;;;;0.20;0.20;;;19.50;49.20;;;;;;6146790;23;20150;-81
2022/10/11 11:44:32;;;;;;;0.30;0.30;;;19.50;49.40;;;;;;6194678;23;20134;-80
2022/10/11 11:47:05;;;;;;;0.77;0.50;;;19.50;49.10;;;;;;6217858;23;20139;-80
2022/10/11 11:49:34;;;;;;;0.60;0.50;;;19.50;49.30;;;;;;6206722;23;20149;-81
2022/10/11 11:51:59;;;;;;;0.40;0.30;;;19.40;49.10;;;;;;6190777;23;20203;-80
2022/10/11 11:54:40;;;;;;;0.50;0.45;;;19.50;49.10;;;;;;6216312;23;20229;-81
2022/10/11 11:57:31;;;;;;;0.65;0.60;;;19.50;49.10;;;;;;6216078;23;20176;-81
2022/10/11 12:00:16;;;;;;;0.57;0.50;;;19.40;48.90;;;;;;6195145;23;20153;-82
2022/10/11 12:02:56;;;;;;;0.45;0.43;;;19.50;48.80;;;;;;6218021;23;20134;-82
2022/10/11 12:05:24;;;;;;;0.57;0.45;;;19.50;48.70;;;;;;6217447;23;20134;-82
2022/10/11 12:07:54;;;;;;;0.30;0.30;;;19.50;49.00;;;;;;6190981;23;20292;-82
2022/10/11 12:10:34;;;;;;;0.47;0.45;;;19.50;48.80;;;;;;6217461;23;20145;-81
2022/10/11 12:13:20;;;;;;;0.52;0.40;;;19.40;49.30;;;;;;6190503;23;20470;-82
2022/10/11 12:15:58;;;;;;;0.70;0.40;;;19.40;48.90;;;;;;6190720;23;20419;-82
2022/10/11 12:18:23;;;;;;;0.40;0.40;;;19.40;48.80;;;;;;6129682;23;20206;-81
2022/10/11 12:21:04;;;;;;;0.40;0.40;;;19.50;48.90;;;;;;6130379;23;20148;-82
2022/10/11 12:23:41;;;;;;;0.40;0.40;;;19.50;48.80;;;;;;6130474;23;20151;-82
2022/10/11 12:26:36;;;;;;;0.60;0.45;;;19.50;48.70;;;;;;6105539;23;20155;-83
2022/10/11 12:29:17;;;;;;;0.68;0.50;;;19.50;48.70;;;;;;6154743;23;20158;-82
2022/10/11 12:31:44;;;;;;;0.47;0.47;;;19.50;48.90;;;;;;6154639;23;20135;-81
2022/10/11 12:34:32;;;;;;;0.70;0.50;;;19.50;48.70;;;;;;6129950;23;20575;-81
2022/10/11 12:36:58;;;;;;;0.30;0.30;;;19.50;48.60;;;;;;6154435;23;20171;-81
2022/10/11 12:39:39;;;;;;;1.85;0.50;;;19.50;48.40;;;;;;6130107;23;20634;-81
2022/10/11 12:42:07;;;;;;;0.28;0.28;;;19.50;48.40;;;;;;6154655;23;20491;-81
2022/10/11 12:44:39;;;;;;;0.40;0.30;;;19.50;48.50;;;;;;6105418;23;20226;-81
2022/10/11 12:47:26;;;;;;;0.60;0.40;;;19.50;48.10;;;;;;6081157;23;20155;-81
2022/10/11 12:50:03;;;;;;;0.30;0.30;;;19.50;48.30;;;;;;6189276;23;20157;-81
2022/10/11 12:52:47;;;;;;;0.30;0.30;;;19.50;48.00;;;;;;6216442;23;20194;-81
2022/10/11 12:55:44;;;;;;;0.30;0.30;;;19.50;47.90;;;;;;6217320;23;20146;-81
2022/10/11 12:58:23;;;;;;;0.40;0.30;;;19.50;48.10;;;;;;6216544;23;20158;-80
2022/10/11 13:01:11;;;;;;;0.52;0.30;;;19.40;48.00;;;;;;6219003;23;20158;-81
2022/10/11 13:03:48;;;;;;;0.40;0.40;;;19.50;48.20;;;;;;6204660;23;20138;-78
2022/10/11 13:06:25;;;;;;;0.30;0.30;;;19.50;47.90;;;;;;6225383;23;20130;-78
2022/10/11 13:12:20;;;;;;;0.65;0.32;;;19.60;47.70;;;;;;6148591;23;20155;-77
2022/10/11 13:15:07;;;;;;;0.30;0.30;;;19.60;47.80;;;;;;6168279;23;20151;-78
2022/10/11 13:17:36;;;;;;;0.40;0.30;;;19.50;47.80;;;;;;6167423;23;20175;-79
2022/10/11 13:20:19;;;;;;;0.40;0.40;;;19.50;48.00;;;;;;6166844;23;20154;-77
2022/10/11 13:22:48;;;;;;;0.47;0.30;;;19.50;47.80;;;;;;6145509;23;20143;-78
2022/10/11 13:25:27;;;;;;;1.55;0.25;;;19.50;47.70;;;;;;6166635;23;20199;-78
2022/10/11 13:27:54;;;;;;;0.57;0.40;;;19.50;47.80;;;;;;6121360;23;20161;-77
2022/10/11 13:30:29;;;;;;;0.32;0.30;;;19.50;47.90;;;;;;6143890;23;20162;-77
2022/10/11 13:32:58;;;;;;;0.35;0.32;;;19.50;47.70;;;;;;6096143;23;20161;-77